createdAt,value
2018-11-28T00:00:23.690Z,32.90
2018-11-28T00:02:51.932Z,28.30
2018-11-28T00:05:20.394Z,33.30
2018-11-28T00:07:48.646Z,32.23
2018-11-28T00:10:17.190Z,35.88
2018-11-28T00:12:45.413Z,32.98
2018-11-28T00:15:14.505Z,33.80
2018-11-28T00:17:42.959Z,29.80
2018-11-28T00:20:16.836Z,36.38
2018-11-28T00:22:45.330Z,31.82
2018-11-28T00:25:14.269Z,30.23
2018-11-28T00:27:42.480Z,27.60
2018-11-28T00:30:12.162Z,28.30
2018-11-28T00:32:40.480Z,32.25
2018-11-28T00:35:10.830Z,32.63
2018-11-28T00:37:39.031Z,34.38
2018-11-28T00:40:09.086Z,34.50
2018-11-28T00:42:37.186Z,29.30
2018-11-28T00:45:09.958Z,31.17
2018-11-28T00:47:38.224Z,34.27
2018-11-28T00:50:09.089Z,32.65
2018-11-28T00:52:38.231Z,31.05
2018-11-28T00:55:08.342Z,29.35
2018-11-28T00:57:36.869Z,30.52
2018-11-28T01:00:08.657Z,28.12
2018-11-28T01:02:37.263Z,30.23
2018-11-28T01:05:06.390Z,29.60
2018-11-28T01:07:34.710Z,32.75
2018-11-28T01:10:04.255Z,33.67
2018-11-28T01:12:32.466Z,30.43
2018-11-28T01:15:00.741Z,36.60
2018-11-28T01:17:29.552Z,30.12
2018-11-28T01:19:59.069Z,32.15
2018-11-28T01:22:27.220Z,36.23
2018-11-28T01:24:56.359Z,29.42
2018-11-28T01:27:24.830Z,29.40
2018-11-28T01:29:53.555Z,31.15
2018-11-28T01:32:22.263Z,30.23
2018-11-28T01:34:50.480Z,29.92
2018-11-28T01:37:18.863Z,35.33
2018-11-28T01:39:48.072Z,27.22
2018-11-28T01:42:16.269Z,37.45
2018-11-28T01:44:44.592Z,33.08
2018-11-28T01:47:12.782Z,37.13
2018-11-28T01:49:41.303Z,35.80
2018-11-28T01:52:09.876Z,30.25
2018-11-28T01:54:38.338Z,34.05
2018-11-28T01:57:06.853Z,35.08
2018-11-28T01:59:35.586Z,35.75
2018-11-28T02:02:03.893Z,39.67
2018-11-28T02:04:32.334Z,38.63
2018-11-28T02:07:00.860Z,41.53
2018-11-28T02:09:29.135Z,38.42
2018-11-28T02:11:57.407Z,32.15
2018-11-28T02:14:25.705Z,36.23
2018-11-28T02:16:54.600Z,32.50
2018-11-28T02:19:22.754Z,38.02
2018-11-28T02:21:50.980Z,38.33
2018-11-28T02:24:19.763Z,32.30
2018-11-28T02:26:48.545Z,30.62
2018-11-28T02:29:17.575Z,30.30
2018-11-28T02:31:45.866Z,31.10
2018-11-28T02:34:14.480Z,36.20
2018-11-28T02:36:42.696Z,32.42
2018-11-28T02:39:10.853Z,33.42
2018-11-28T02:41:39.125Z,38.53
2018-11-28T02:44:07.502Z,39.73
2018-11-28T02:46:35.700Z,35.38
2018-11-28T02:49:03.925Z,40.95
2018-11-28T02:51:32.674Z,35.28
2018-11-28T02:54:01.546Z,41.58
2018-11-28T02:56:29.847Z,47.48
2018-11-28T02:58:58.671Z,41.40
2018-11-28T03:01:26.943Z,40.65
2018-11-28T03:03:55.752Z,40.12
2018-11-28T03:06:24.016Z,41.25
2018-11-28T03:08:52.170Z,40.33
2018-11-28T03:11:20.337Z,45.12
2018-11-28T03:13:48.466Z,41.85
2018-11-28T03:16:19.253Z,40.80
2018-11-28T03:18:47.760Z,51.48
2018-11-28T03:21:16.453Z,48.02
2018-11-28T03:23:44.913Z,42.08
2018-11-28T03:26:13.080Z,40.65
2018-11-28T03:28:41.421Z,42.33
2018-11-28T03:31:09.798Z,39.03
2018-11-28T03:33:38.068Z,40.48
2018-11-28T03:36:06.586Z,32.50
2018-11-28T03:38:35.211Z,38.20
2018-11-28T03:41:04.006Z,38.25
2018-11-28T03:43:32.117Z,35.05
2018-11-28T03:46:00.416Z,35.92
2018-11-28T03:48:28.547Z,41.37
2018-11-28T03:50:57.433Z,42.95
2018-11-28T03:53:25.589Z,38.73
2018-11-28T03:55:53.784Z,46.85
2018-11-28T03:58:22.010Z,27.15
2018-11-28T04:00:51.009Z,36.45
2018-11-28T04:03:19.125Z,34.98
2018-11-28T04:05:47.614Z,28.25
2018-11-28T04:08:16.045Z,30.00
2018-11-28T04:10:44.210Z,37.40
2018-11-28T04:13:12.599Z,39.55
2018-11-28T04:15:40.746Z,39.78
2018-11-28T04:18:09.343Z,30.08
2018-11-28T04:20:37.565Z,28.05
2018-11-28T04:23:05.816Z,33.20
2018-11-28T04:25:34.723Z,31.00
2018-11-28T04:28:03.469Z,34.10
2018-11-28T04:30:32.082Z,36.42
2018-11-28T04:33:00.930Z,35.92
2018-11-28T04:35:29.266Z,32.78
2018-11-28T04:37:57.471Z,32.85
2018-11-28T04:40:25.763Z,33.30
2018-11-28T04:42:54.052Z,39.20
2018-11-28T04:45:22.966Z,32.20
2018-11-28T04:47:52.334Z,34.35
2018-11-28T04:50:20.901Z,34.20
2018-11-28T04:52:49.374Z,35.78
2018-11-28T04:55:18.873Z,30.45
2018-11-28T04:57:47.262Z,32.45
2018-11-28T05:00:19.111Z,32.63
2018-11-28T05:02:47.406Z,27.02
2018-11-28T05:05:15.587Z,28.87
2018-11-28T05:07:44.828Z,32.78
2018-11-28T05:10:29.257Z,29.12
2018-11-28T05:12:59.328Z,29.90
2018-11-28T05:15:30.538Z,32.80
2018-11-28T05:17:58.849Z,26.02
2018-11-28T05:20:29.314Z,27.82
2018-11-28T05:22:57.590Z,26.27
2018-11-28T05:25:28.073Z,28.05
2018-11-28T05:27:57.093Z,29.55
2018-11-28T05:30:28.690Z,30.92
2018-11-28T05:32:56.972Z,27.55
2018-11-28T05:35:30.374Z,34.00
2018-11-28T05:37:58.809Z,32.90
2018-11-28T05:40:27.651Z,29.48
2018-11-28T05:42:56.099Z,28.85
2018-11-28T05:45:24.928Z,25.55
2018-11-28T05:47:53.402Z,31.07
2018-11-28T05:50:22.223Z,35.70
2018-11-28T05:52:50.867Z,25.70
2018-11-28T05:55:21.143Z,27.93
2018-11-28T05:57:49.649Z,26.37
2018-11-28T06:00:28.308Z,27.75
2018-11-28T06:02:56.466Z,30.70
2018-11-28T06:05:24.624Z,34.08
2018-11-28T06:07:52.934Z,30.23
2018-11-28T06:10:21.366Z,30.17
2018-11-28T06:12:49.646Z,37.63
2018-11-28T06:15:17.925Z,32.75
2018-11-28T06:17:46.198Z,38.58
2018-11-28T06:20:15.438Z,27.90
2018-11-28T06:22:43.778Z,30.50
2018-11-28T06:25:16.144Z,29.87
2018-11-28T06:27:41.708Z,31.27
2018-11-28T06:30:11.926Z,33.50
2018-11-28T06:32:40.962Z,33.67
2018-11-28T06:35:09.927Z,37.48
2018-11-28T06:37:38.263Z,34.78
2018-11-28T06:40:13.929Z,35.55
2018-11-28T06:42:42.486Z,30.85
2018-11-28T06:45:15.225Z,27.50
2018-11-28T06:47:43.549Z,38.33
2018-11-28T06:50:19.134Z,32.63
2018-11-28T06:52:48.542Z,30.00
2018-11-28T06:55:17.942Z,35.15
2018-11-28T06:57:46.103Z,30.62
2018-11-28T07:00:16.689Z,32.30
2018-11-28T07:02:45.086Z,37.28
2018-11-28T07:05:13.495Z,28.70
2018-11-28T07:07:41.848Z,35.48
2018-11-28T07:10:13.528Z,37.58
2018-11-28T07:12:41.833Z,39.88
2018-11-28T07:15:13.085Z,32.88
2018-11-28T07:17:42.403Z,25.50
2018-11-28T07:20:12.768Z,31.62
2018-11-28T07:22:41.365Z,30.75
2018-11-28T07:25:13.728Z,32.65
2018-11-28T07:27:44.990Z,31.45
2018-11-28T07:30:19.568Z,30.12
2018-11-28T07:32:48.604Z,35.45
2018-11-28T07:35:16.859Z,28.10
2018-11-28T07:37:45.029Z,35.25
2018-11-28T07:40:15.447Z,26.02
2018-11-28T07:42:49.590Z,30.60
2018-11-28T07:45:18.354Z,30.80
2018-11-28T07:47:46.467Z,26.80
2018-11-28T07:50:15.299Z,32.67
2018-11-28T07:52:43.445Z,33.50
2018-11-28T07:55:11.911Z,27.45
2018-11-28T07:57:40.378Z,34.20
2018-11-28T08:00:11.122Z,30.37
2018-11-28T08:02:39.670Z,30.00
2018-11-28T08:05:09.436Z,28.35
2018-11-28T08:07:37.975Z,30.72
2018-11-28T08:10:08.351Z,29.37
2018-11-28T08:12:36.784Z,28.32
2018-11-28T08:15:06.795Z,30.43
2018-11-28T08:17:36.331Z,30.25
2018-11-28T08:20:04.063Z,30.48
2018-11-28T08:22:32.284Z,30.72
2018-11-28T08:25:00.468Z,29.87
2018-11-28T08:27:28.639Z,28.07
2018-11-28T08:29:57.130Z,31.05
2018-11-28T08:32:25.591Z,30.05
2018-11-28T08:34:53.857Z,29.32
2018-11-28T08:37:22.079Z,26.60
2018-11-28T08:39:50.266Z,26.45
2018-11-28T08:42:18.476Z,27.73
2018-11-28T08:44:46.881Z,31.37
2018-11-28T08:47:15.950Z,24.92
2018-11-28T08:49:44.470Z,26.65
2018-11-28T08:52:12.970Z,25.23
2018-11-28T08:54:41.162Z,27.67
2018-11-28T08:57:09.505Z,22.62
2018-11-28T08:59:38.449Z,29.63
2018-11-28T09:02:06.705Z,31.70
2018-11-28T09:04:35.032Z,28.30
2018-11-28T09:07:03.335Z,30.17
2018-11-28T09:09:31.454Z,24.63
2018-11-28T09:11:59.827Z,22.48
2018-11-28T09:14:28.262Z,25.08
2018-11-28T09:16:57.110Z,28.98
2018-11-28T09:19:25.340Z,25.30
2018-11-28T09:21:53.511Z,25.57
2018-11-28T09:24:21.918Z,28.77
2018-11-28T09:26:50.372Z,25.43
2018-11-28T09:29:18.755Z,27.93
2018-11-28T09:31:46.995Z,25.30
2018-11-28T09:34:15.369Z,30.35
2018-11-28T09:36:43.685Z,23.73
2018-11-28T09:39:12.966Z,25.50
2018-11-28T09:41:41.065Z,24.50
2018-11-28T09:44:09.266Z,28.32
2018-11-28T09:46:37.564Z,26.20
2018-11-28T09:49:06.319Z,25.10
2018-11-28T09:51:34.535Z,29.37
2018-11-28T09:54:02.749Z,25.48
2018-11-28T09:56:31.119Z,27.80
2018-11-28T09:59:00.980Z,26.65
2018-11-28T10:01:29.315Z,22.55
2018-11-28T10:03:57.713Z,24.57
2018-11-28T10:06:25.866Z,25.60
2018-11-28T10:08:54.207Z,20.77
2018-11-28T10:11:22.908Z,24.07
2018-11-28T10:13:51.472Z,28.50
2018-11-28T10:16:20.199Z,24.07
2018-11-28T10:18:49.112Z,22.53
2018-11-28T10:21:17.428Z,25.43
2018-11-28T10:23:45.980Z,23.20
2018-11-28T10:26:15.118Z,21.70
2018-11-28T10:28:43.267Z,23.40
2018-11-28T10:31:11.495Z,23.27
2018-11-28T10:33:39.646Z,23.20
2018-11-28T10:36:07.852Z,22.83
2018-11-28T10:38:36.235Z,23.57
2018-11-28T10:41:04.422Z,27.27
2018-11-28T10:43:32.651Z,26.50
2018-11-28T10:46:01.510Z,24.40
2018-11-28T10:48:29.870Z,24.97
2018-11-28T10:50:58.049Z,27.97
2018-11-28T10:53:26.251Z,24.90
2018-11-28T10:55:54.530Z,23.67
2018-11-28T10:58:22.790Z,20.90
2018-11-28T11:00:56.595Z,22.27
2018-11-28T11:03:30.606Z,25.60
2018-11-28T11:06:03.788Z,22.80
2018-11-28T11:08:38.690Z,20.10
2018-11-28T11:11:12.543Z,22.73
2018-11-28T11:13:45.976Z,23.30
2018-11-28T11:16:18.765Z,20.30
2018-11-28T11:18:47.492Z,21.80
2018-11-28T11:21:15.929Z,20.30
2018-11-28T11:23:44.331Z,24.17
2018-11-28T11:26:12.586Z,20.07
2018-11-28T11:28:40.896Z,20.23
2018-11-28T11:31:09.257Z,21.23
2018-11-28T11:33:37.502Z,21.97
2018-11-28T11:36:06.056Z,22.07
2018-11-28T11:38:34.224Z,22.90
2018-11-28T11:41:02.782Z,21.20
2018-11-28T11:43:31.802Z,17.63
2018-11-28T11:46:00.253Z,20.13
2018-11-28T11:48:28.582Z,19.30
2018-11-28T11:50:56.851Z,19.07
2018-11-28T11:53:25.316Z,17.83
2018-11-28T11:55:53.628Z,20.13
2018-11-28T11:58:22.151Z,17.27
2018-11-28T12:00:51.506Z,19.90
2018-11-28T12:03:19.655Z,17.60
2018-11-28T12:05:49.992Z,18.43
2018-11-28T12:08:18.183Z,20.40
2018-11-28T12:10:46.820Z,16.10
2018-11-28T12:13:15.483Z,17.10
2018-11-28T12:15:43.686Z,19.20
2018-11-28T12:18:12.478Z,19.00
2018-11-28T12:21:11.535Z,18.33
2018-11-28T12:23:39.876Z,19.20
2018-11-28T12:26:08.403Z,20.90
2018-11-28T12:28:36.527Z,18.73
2018-11-28T12:31:04.818Z,22.80
2018-11-28T12:33:33.320Z,16.70
2018-11-28T12:36:01.499Z,18.83
2018-11-28T12:38:29.865Z,21.50
2018-11-28T12:40:58.751Z,21.67
2018-11-28T12:43:27.081Z,58.20
2018-11-28T12:45:55.365Z,23.20
2018-11-28T12:48:23.696Z,24.53
2018-11-28T12:50:52.058Z,23.40
2018-11-28T12:53:21.344Z,24.50
2018-11-28T12:55:49.470Z,24.90
2018-11-28T12:58:19.295Z,27.80
2018-11-28T13:00:47.798Z,21.60
2018-11-28T13:03:18.409Z,24.80
2018-11-28T13:05:46.885Z,25.63
2018-11-28T13:08:15.009Z,23.60
2018-11-28T13:10:44.006Z,19.47
2018-11-28T13:13:12.283Z,24.33
2018-11-28T13:15:41.095Z,23.80
2018-11-28T13:18:10.766Z,25.50
2018-11-28T13:20:40.069Z,28.07
2018-11-28T13:23:09.725Z,20.47
2018-11-28T13:25:38.038Z,26.33
2018-11-28T13:28:06.743Z,24.10
2018-11-28T13:30:34.990Z,23.73
2018-11-28T13:33:03.929Z,24.07
2018-11-28T13:35:32.088Z,29.37
2018-11-28T13:38:09.638Z,23.53
2018-11-28T13:40:38.074Z,24.73
2018-11-28T13:43:06.773Z,26.10
2018-11-28T13:45:36.712Z,24.57
2018-11-28T13:48:05.903Z,31.20
2018-11-28T13:50:34.175Z,26.17
2018-11-28T13:53:04.734Z,22.70
2018-11-28T13:55:40.989Z,24.87
2018-11-28T13:58:03.819Z,23.93
2018-11-28T14:00:32.317Z,27.63
2018-11-28T14:03:01.035Z,24.00
2018-11-28T14:05:29.142Z,29.10
2018-11-28T14:07:57.792Z,25.27
2018-11-28T14:10:26.126Z,25.67
2018-11-28T14:12:55.018Z,27.30
2018-11-28T14:15:23.541Z,23.67
2018-11-28T14:18:00.860Z,22.50
2018-11-28T14:20:29.105Z,20.17
2018-11-28T14:22:57.322Z,25.20
2018-11-28T14:25:26.021Z,23.53
2018-11-28T14:27:54.317Z,22.13
2018-11-28T14:30:23.162Z,24.37
2018-11-28T14:32:52.549Z,26.30
2018-11-28T14:35:21.861Z,19.97
2018-11-28T14:37:50.452Z,23.17
2018-11-28T14:40:20.688Z,24.30
2018-11-28T14:42:50.217Z,22.90
2018-11-28T14:45:19.119Z,20.33
2018-11-28T14:47:49.487Z,24.73
2018-11-28T14:50:18.638Z,25.70
2018-11-28T14:52:47.192Z,26.80
2018-11-28T14:55:21.607Z,26.00
2018-11-28T14:57:50.100Z,24.10
2018-11-28T15:00:23.508Z,22.53
2018-11-28T15:02:57.114Z,24.07
2018-11-28T15:05:35.335Z,23.23
2018-11-28T15:08:13.750Z,26.83
2018-11-28T15:10:46.078Z,25.13
2018-11-28T15:13:14.298Z,22.70
2018-11-28T15:15:42.741Z,25.53
2018-11-28T15:18:11.519Z,21.07
2018-11-28T15:20:39.912Z,18.70
2018-11-28T15:23:08.079Z,22.27
2018-11-28T15:25:36.448Z,15.37
2018-11-28T15:28:04.663Z,16.55
2018-11-28T15:30:32.958Z,13.93
2018-11-28T15:33:01.508Z,18.07
2018-11-28T15:35:29.965Z,16.27
2018-11-28T15:37:58.563Z,18.48
2018-11-28T15:40:26.891Z,21.40
2018-11-28T15:42:55.486Z,18.30
2018-11-28T15:45:23.873Z,16.12
2018-11-28T15:47:52.826Z,18.45
2018-11-28T15:50:22.064Z,18.87
2018-11-28T15:52:50.763Z,15.75
2018-11-28T15:55:19.299Z,21.17
2018-11-28T15:57:48.234Z,15.83
2018-11-28T16:00:24.678Z,18.12
2018-11-28T16:02:54.175Z,16.00
2018-11-28T16:05:22.318Z,16.00
2018-11-28T16:07:50.715Z,18.55
2018-11-28T16:10:24.445Z,17.32
2018-11-28T16:12:54.190Z,15.53
2018-11-28T16:15:24.284Z,18.60
2018-11-28T16:17:52.978Z,20.75
2018-11-28T16:20:21.118Z,15.40
2018-11-28T16:22:50.155Z,16.80
2018-11-28T16:25:18.268Z,16.52
2018-11-28T16:27:46.916Z,18.85
2018-11-28T16:30:16.143Z,18.17
2018-11-28T16:32:45.412Z,15.35
2018-11-28T16:35:15.235Z,16.87
2018-11-28T16:37:43.600Z,17.17
2018-11-28T16:40:16.463Z,16.45
2018-11-28T16:42:44.767Z,18.20
2018-11-28T16:45:17.494Z,21.27
2018-11-28T16:47:46.856Z,17.02
2018-11-28T16:50:15.746Z,20.17
2018-11-28T16:52:43.967Z,17.42
2018-11-28T16:55:14.755Z,17.62
2018-11-28T16:57:44.274Z,19.10
2018-11-28T17:00:17.950Z,16.30
2018-11-28T17:02:46.350Z,20.77
2018-11-28T17:05:16.846Z,15.88
2018-11-28T17:07:45.233Z,15.25
2018-11-28T17:10:16.445Z,15.78
2018-11-28T17:12:46.981Z,20.00
2018-11-28T17:15:16.082Z,20.45
2018-11-28T17:17:46.306Z,20.12
2018-11-28T17:20:16.882Z,20.45
2018-11-28T17:22:45.466Z,17.37
2018-11-28T17:25:23.024Z,33.40
2018-11-28T17:27:52.325Z,17.10
2018-11-28T17:30:23.069Z,20.57
2018-11-28T17:32:52.274Z,20.12
2018-11-28T17:35:20.624Z,20.08
2018-11-28T17:37:48.803Z,17.87
2018-11-28T17:40:18.800Z,18.85
2018-11-28T17:42:49.489Z,21.02
2018-11-28T17:45:18.748Z,19.50
2018-11-28T17:47:46.974Z,18.32
2018-11-28T17:50:19.261Z,23.22
2018-11-28T17:53:20.750Z,21.33
2018-11-28T17:55:52.189Z,16.60
2018-11-28T17:58:20.610Z,20.95
2018-11-28T18:00:49.027Z,19.05
2018-11-28T18:03:17.600Z,18.67
2018-11-28T18:05:46.066Z,19.10
2018-11-28T18:08:14.940Z,21.73
2018-11-28T18:10:43.702Z,24.82
2018-11-28T18:13:17.245Z,28.55
2018-11-28T18:15:51.647Z,20.57
2018-11-28T18:18:23.073Z,19.73
2018-11-28T18:20:51.525Z,20.68
2018-11-28T18:23:19.896Z,24.43
2018-11-28T18:25:48.330Z,15.83
2018-11-28T18:28:16.517Z,19.02
2018-11-28T18:30:45.155Z,18.62
2018-11-28T18:33:14.139Z,17.02
2018-11-28T18:35:42.717Z,18.80
2018-11-28T18:38:11.324Z,17.05
2018-11-28T18:40:39.498Z,17.65
2018-11-28T18:43:09.693Z,20.17
2018-11-28T18:45:44.051Z,17.65
2018-11-28T18:48:14.922Z,17.05
2018-11-28T18:50:43.496Z,19.65
2018-11-28T18:53:15.493Z,28.47
2018-11-28T18:55:45.895Z,26.77
2018-11-28T18:58:15.878Z,17.77
2018-11-28T19:00:45.870Z,17.32
2018-11-28T19:03:16.235Z,19.98
2018-11-28T19:05:44.428Z,19.37
2018-11-28T19:08:15.497Z,21.65
2018-11-28T19:10:44.394Z,18.35
2018-11-28T19:13:13.541Z,18.60
2018-11-28T19:15:41.686Z,55.60
2018-11-28T19:18:10.545Z,21.82
2018-11-28T19:20:38.811Z,18.67
2018-11-28T19:23:07.822Z,21.02
2018-11-28T19:25:36.018Z,17.10
2018-11-28T19:28:04.492Z,20.95
2018-11-28T19:30:36.648Z,16.85
2018-11-28T19:33:06.269Z,17.65
2018-11-28T19:35:35.408Z,14.95
2018-11-28T19:38:03.772Z,17.87
2018-11-28T19:40:35.001Z,16.50
2018-11-28T19:43:04.552Z,19.32
2018-11-28T19:45:32.767Z,17.00
2018-11-28T19:48:01.868Z,16.65
2018-11-28T19:50:31.981Z,14.25
2018-11-28T19:53:01.415Z,16.50
2018-11-28T19:55:29.542Z,16.85
2018-11-28T19:57:57.825Z,19.17
2018-11-28T20:00:26.322Z,21.00
2018-11-28T20:02:54.566Z,18.52
2018-11-28T20:05:23.436Z,16.97
2018-11-28T20:07:51.676Z,19.48
2018-11-28T20:10:22.096Z,17.65
2018-11-28T20:12:51.182Z,17.30
2018-11-28T20:15:24.740Z,12.37
2018-11-28T20:17:53.468Z,20.55
2018-11-28T20:20:21.756Z,13.48
2018-11-28T20:22:50.201Z,17.77
2018-11-28T20:25:19.605Z,16.17
2018-11-28T20:27:50.626Z,14.90
2018-11-28T20:30:20.370Z,15.60
2018-11-28T20:32:48.572Z,13.35
2018-11-28T20:35:17.168Z,17.65
2018-11-28T20:37:45.286Z,16.87
2018-11-28T20:40:15.105Z,21.30
2018-11-28T20:42:44.807Z,17.35
2018-11-28T20:45:13.574Z,17.25
2018-11-28T20:47:41.892Z,17.77
2018-11-28T20:50:11.752Z,22.22
2018-11-28T20:52:41.419Z,20.75
2018-11-28T20:55:10.314Z,18.35
2018-11-28T20:57:38.815Z,27.62
2018-11-28T21:00:14.202Z,23.22
2018-11-28T21:02:42.463Z,26.75
2018-11-28T21:05:11.442Z,30.30
2018-11-28T21:07:40.834Z,34.50
2018-11-28T21:10:16.921Z,20.32
2018-11-28T21:12:47.332Z,23.25
2018-11-28T21:15:15.864Z,23.12
2018-11-28T21:17:45.311Z,24.52
2018-11-28T21:20:15.678Z,24.57
2018-11-28T21:22:45.239Z,26.23
2018-11-28T21:25:13.513Z,24.27
2018-11-28T21:27:42.375Z,27.98
2018-11-28T21:30:13.965Z,23.55
2018-11-28T21:32:42.610Z,23.67
2018-11-28T21:35:44.191Z,21.20
2018-11-28T21:38:13.128Z,27.05
2018-11-28T21:40:41.508Z,22.70
2018-11-28T21:43:10.503Z,27.42
2018-11-28T21:45:38.857Z,24.67
2018-11-28T21:48:07.302Z,23.12
2018-11-28T21:50:36.216Z,23.70
2018-11-28T21:53:05.170Z,27.93
2018-11-28T21:55:33.694Z,23.80
2018-11-28T21:58:01.932Z,25.10
2018-11-28T22:00:30.384Z,20.37
2018-11-28T22:02:58.879Z,20.72
2018-11-28T22:05:27.791Z,21.60
2018-11-28T22:07:57.850Z,19.82
2018-11-28T22:10:26.337Z,24.18
2018-11-28T22:12:55.582Z,24.32
2018-11-28T22:15:24.057Z,16.25
2018-11-28T22:17:54.158Z,16.77
2018-11-28T22:20:22.715Z,24.07
2018-11-28T22:22:50.903Z,17.52
2018-11-28T22:25:21.882Z,21.75
2018-11-28T22:27:50.514Z,29.23
2018-11-28T22:30:22.750Z,18.92
2018-11-28T22:32:51.061Z,23.70
2018-11-28T22:35:19.367Z,30.05
2018-11-28T22:37:47.591Z,27.85
2018-11-28T22:40:25.750Z,25.88
2018-11-28T22:42:54.398Z,26.73
2018-11-28T22:45:24.066Z,24.12
2018-11-28T22:47:52.532Z,26.05
2018-11-28T22:50:20.852Z,22.98
2018-11-28T22:52:50.191Z,30.80
2018-11-28T22:55:18.918Z,24.55
2018-11-28T22:57:47.561Z,25.75
2018-11-28T23:00:32.986Z,18.65
2018-11-28T23:03:09.278Z,23.12
2018-11-28T23:05:41.743Z,22.48
2018-11-28T23:08:10.986Z,24.10
2018-11-28T23:10:40.233Z,26.90
2018-11-28T23:13:10.459Z,29.70
2018-11-28T23:15:38.654Z,25.32
2018-11-28T23:18:08.438Z,19.87
2018-11-28T23:20:38.320Z,24.92
2018-11-28T23:23:07.675Z,21.10
2018-11-28T23:25:36.522Z,24.32
2018-11-28T23:28:04.819Z,19.92
2018-11-28T23:30:33.998Z,22.65
2018-11-28T23:33:02.997Z,25.55
2018-11-28T23:35:31.833Z,21.68
2018-11-28T23:38:00.879Z,22.35
2018-11-28T23:40:28.977Z,19.20
2018-11-28T23:42:57.247Z,26.90
2018-11-28T23:45:26.081Z,21.68
2018-11-28T23:47:54.778Z,22.77
2018-11-28T23:50:24.246Z,23.73
2018-11-28T23:52:53.987Z,23.22
2018-11-28T23:55:23.133Z,23.98
2018-11-28T23:57:51.567Z,27.67
